sensor_id;sensor_type;location;lat;lon;timestamp;P1;durP1;ratioP1;P2;durP2;ratioP2
10902;SDS011;5504;47.312;11.060;2022-07-01T00:01:37;5.60;;;4.63;;
10902;SDS011;5504;47.312;11.060;2022-07-01T00:04:05;7.50;;;5.23;;
10902;SDS011;5504;47.312;11.060;2022-07-01T00:06:30;5.30;;;4.80;;
10902;SDS011;5504;47.312;11.060;2022-07-01T00:08:56;7.67;;;4.83;;
10902;SDS011;5504;47.312;11.060;2022-07-01T00:11:22;6.23;;;4.83;;
10902;SDS011;5504;47.312;11.060;2022-07-01T00:13:48;4.97;;;4.47;;
10902;SDS011;5504;47.312;11.060;2022-07-01T00:16:13;6.80;;;5.50;;
10902;SDS011;5504;47.312;11.060;2022-07-01T00:18:39;6.40;;;5.10;;
10902;SDS011;5504;47.312;11.060;2022-07-01T00:21:05;6.50;;;5.13;;
10902;SDS011;5504;47.312;11.060;2022-07-01T00:23:30;5.73;;;5.17;;
10902;SDS011;5504;47.312;11.060;2022-07-01T00:25:56;6.40;;;4.73;;
10902;SDS011;5504;47.312;11.060;2022-07-01T00:28:22;6.30;;;5.30;;
10902;SDS011;5504;47.312;11.060;2022-07-01T00:30:48;7.17;;;5.20;;
10902;SDS011;5504;47.312;11.060;2022-07-01T00:33:14;5.43;;;4.90;;
10902;SDS011;5504;47.312;11.060;2022-07-01T00:35:40;6.70;;;5.10;;
10902;SDS011;5504;47.312;11.060;2022-07-01T00:38:06;6.17;;;5.03;;
10902;SDS011;5504;47.312;11.060;2022-07-01T00:40:32;6.70;;;4.60;;
10902;SDS011;5504;47.312;11.060;2022-07-01T00:42:57;6.60;;;4.77;;
10902;SDS011;5504;47.312;11.060;2022-07-01T00:45:23;6.93;;;5.00;;
10902;SDS011;5504;47.312;11.060;2022-07-01T00:47:48;9.60;;;5.50;;
10902;SDS011;5504;47.312;11.060;2022-07-01T00:50:15;5.43;;;4.90;;
10902;SDS011;5504;47.312;11.060;2022-07-01T00:52:42;7.10;;;4.70;;
10902;SDS011;5504;47.312;11.060;2022-07-01T00:55:09;7.30;;;5.13;;
10902;SDS011;5504;47.312;11.060;2022-07-01T00:57:38;7.53;;;5.50;;
10902;SDS011;5504;47.312;11.060;2022-07-01T01:00:09;6.33;;;5.17;;
10902;SDS011;5504;47.312;11.060;2022-07-01T01:02:37;9.30;;;5.67;;
10902;SDS011;5504;47.312;11.060;2022-07-01T01:05:04;7.17;;;5.90;;
10902;SDS011;5504;47.312;11.060;2022-07-01T01:07:31;6.00;;;5.27;;
10902;SDS011;5504;47.312;11.060;2022-07-01T01:09:58;6.13;;;5.57;;
10902;SDS011;5504;47.312;11.060;2022-07-01T01:12:26;7.40;;;5.20;;
10902;SDS011;5504;47.312;11.060;2022-07-01T01:14:52;7.40;;;5.03;;
10902;SDS011;5504;47.312;11.060;2022-07-01T01:17:18;7.67;;;5.40;;
10902;SDS011;5504;47.312;11.060;2022-07-01T01:19:46;9.70;;;6.20;;
10902;SDS011;5504;47.312;11.060;2022-07-01T01:22:14;6.83;;;6.17;;
10902;SDS011;5504;47.312;11.060;2022-07-01T01:24:41;7.53;;;6.73;;
10902;SDS011;5504;47.312;11.060;2022-07-01T01:27:07;7.13;;;6.43;;
10902;SDS011;5504;47.312;11.060;2022-07-01T01:29:34;7.13;;;6.30;;
10902;SDS011;5504;47.312;11.060;2022-07-01T01:32:01;7.73;;;6.50;;
10902;SDS011;5504;47.312;11.060;2022-07-01T01:34:28;8.10;;;6.33;;
10902;SDS011;5504;47.312;11.060;2022-07-01T01:36:54;8.70;;;6.70;;
10902;SDS011;5504;47.312;11.060;2022-07-01T01:39:19;7.70;;;6.50;;
10902;SDS011;5504;47.312;11.060;2022-07-01T01:41:46;7.97;;;6.97;;
10902;SDS011;5504;47.312;11.060;2022-07-01T01:44:12;9.33;;;6.87;;
10902;SDS011;5504;47.312;11.060;2022-07-01T01:46:38;9.17;;;6.53;;
10902;SDS011;5504;47.312;11.060;2022-07-01T01:49:05;6.93;;;6.23;;
10902;SDS011;5504;47.312;11.060;2022-07-01T01:51:32;7.50;;;6.53;;
10902;SDS011;5504;47.312;11.060;2022-07-01T01:53:58;8.83;;;6.83;;
10902;SDS011;5504;47.312;11.060;2022-07-01T01:56:24;9.40;;;6.93;;
10902;SDS011;5504;47.312;11.060;2022-07-01T01:58:50;8.30;;;7.23;;
10902;SDS011;5504;47.312;11.060;2022-07-01T02:01:17;11.23;;;7.30;;
10902;SDS011;5504;47.312;11.060;2022-07-01T02:03:44;7.00;;;6.40;;
10902;SDS011;5504;47.312;11.060;2022-07-01T02:06:11;8.93;;;6.73;;
10902;SDS011;5504;47.312;11.060;2022-07-01T02:08:38;7.73;;;6.83;;
10902;SDS011;5504;47.312;11.060;2022-07-01T02:11:04;8.07;;;6.17;;
10902;SDS011;5504;47.312;11.060;2022-07-01T02:13:31;8.07;;;6.67;;
10902;SDS011;5504;47.312;11.060;2022-07-01T02:15:56;8.73;;;6.83;;
10902;SDS011;5504;47.312;11.060;2022-07-01T02:18:23;8.70;;;6.47;;
10902;SDS011;5504;47.312;11.060;2022-07-01T02:20:48;8.27;;;6.60;;
10902;SDS011;5504;47.312;11.060;2022-07-01T02:23:14;7.23;;;6.60;;
10902;SDS011;5504;47.312;11.060;2022-07-01T02:25:40;7.60;;;6.27;;
10902;SDS011;5504;47.312;11.060;2022-07-01T02:28:06;7.83;;;7.00;;
10902;SDS011;5504;47.312;11.060;2022-07-01T02:30:33;9.77;;;7.23;;
10902;SDS011;5504;47.312;11.060;2022-07-01T02:33:02;7.60;;;6.80;;
10902;SDS011;5504;47.312;11.060;2022-07-01T02:35:31;8.17;;;6.90;;
10902;SDS011;5504;47.312;11.060;2022-07-01T02:37:58;7.30;;;6.60;;
10902;SDS011;5504;47.312;11.060;2022-07-01T02:40:23;9.03;;;7.10;;
10902;SDS011;5504;47.312;11.060;2022-07-01T02:42:49;7.57;;;6.80;;
10902;SDS011;5504;47.312;11.060;2022-07-01T02:45:15;8.30;;;6.93;;
10902;SDS011;5504;47.312;11.060;2022-07-01T02:47:41;7.57;;;6.80;;
10902;SDS011;5504;47.312;11.060;2022-07-01T02:50:07;7.17;;;6.47;;
10902;SDS011;5504;47.312;11.060;2022-07-01T02:52:35;7.33;;;6.63;;
10902;SDS011;5504;47.312;11.060;2022-07-01T02:55:02;9.17;;;6.67;;
10902;SDS011;5504;47.312;11.060;2022-07-01T02:57:29;10.47;;;7.27;;
10902;SDS011;5504;47.312;11.060;2022-07-01T02:59:55;8.17;;;7.37;;
10902;SDS011;5504;47.312;11.060;2022-07-01T03:02:21;8.60;;;7.13;;
10902;SDS011;5504;47.312;11.060;2022-07-01T03:04:48;9.27;;;8.23;;
10902;SDS011;5504;47.312;11.060;2022-07-01T03:07:15;9.50;;;8.10;;
10902;SDS011;5504;47.312;11.060;2022-07-01T03:09:41;8.90;;;8.00;;
10902;SDS011;5504;47.312;11.060;2022-07-01T03:12:09;8.53;;;7.43;;
10902;SDS011;5504;47.312;11.060;2022-07-01T03:14:53;11.03;;;7.40;;
10902;SDS011;5504;47.312;11.060;2022-07-01T03:17:23;9.93;;;7.20;;
10902;SDS011;5504;47.312;11.060;2022-07-01T03:19:53;7.83;;;7.03;;
10902;SDS011;5504;47.312;11.060;2022-07-01T03:22:20;8.50;;;6.87;;
10902;SDS011;5504;47.312;11.060;2022-07-01T03:24:47;8.93;;;6.50;;
10902;SDS011;5504;47.312;11.060;2022-07-01T03:27:14;6.60;;;5.90;;
10902;SDS011;5504;47.312;11.060;2022-07-01T03:29:40;8.40;;;6.83;;
10902;SDS011;5504;47.312;11.060;2022-07-01T03:32:06;6.70;;;6.10;;
10902;SDS011;5504;47.312;11.060;2022-07-01T03:34:35;8.10;;;6.03;;
10902;SDS011;5504;47.312;11.060;2022-07-01T03:37:01;7.93;;;6.30;;
10902;SDS011;5504;47.312;11.060;2022-07-01T03:39:27;8.73;;;6.53;;
10902;SDS011;5504;47.312;11.060;2022-07-01T03:41:53;7.40;;;6.43;;
10902;SDS011;5504;47.312;11.060;2022-07-01T03:44:19;7.40;;;6.50;;
10902;SDS011;5504;47.312;11.060;2022-07-01T03:46:44;7.87;;;7.03;;
10902;SDS011;5504;47.312;11.060;2022-07-01T03:49:10;11.30;;;8.50;;
10902;SDS011;5504;47.312;11.060;2022-07-01T03:51:36;10.37;;;8.30;;
10902;SDS011;5504;47.312;11.060;2022-07-01T03:54:02;8.57;;;7.77;;
10902;SDS011;5504;47.312;11.060;2022-07-01T03:56:46;9.67;;;7.80;;
10902;SDS011;5504;47.312;11.060;2022-07-01T03:59:12;10.13;;;8.10;;
10902;SDS011;5504;47.312;11.060;2022-07-01T04:01:38;9.73;;;7.60;;
10902;SDS011;5504;47.312;11.060;2022-07-01T04:04:03;9.77;;;8.23;;
10902;SDS011;5504;47.312;11.060;2022-07-01T04:06:29;9.27;;;7.93;;
10902;SDS011;5504;47.312;11.060;2022-07-01T04:08:55;9.53;;;8.17;;
10902;SDS011;5504;47.312;11.060;2022-07-01T04:11:21;12.83;;;8.27;;
10902;SDS011;5504;47.312;11.060;2022-07-01T04:13:47;9.70;;;8.47;;
10902;SDS011;5504;47.312;11.060;2022-07-01T04:16:19;8.97;;;8.07;;
10902;SDS011;5504;47.312;11.060;2022-07-01T04:18:48;11.57;;;9.00;;
10902;SDS011;5504;47.312;11.060;2022-07-01T04:21:14;10.17;;;8.73;;
10902;SDS011;5504;47.312;11.060;2022-07-01T04:23:59;10.33;;;8.53;;
10902;SDS011;5504;47.312;11.060;2022-07-01T04:26:25;11.23;;;8.63;;
10902;SDS011;5504;47.312;11.060;2022-07-01T04:28:51;10.70;;;8.17;;
10902;SDS011;5504;47.312;11.060;2022-07-01T04:31:17;8.90;;;8.00;;
10902;SDS011;5504;47.312;11.060;2022-07-01T04:33:44;8.93;;;8.13;;
10902;SDS011;5504;47.312;11.060;2022-07-01T04:36:13;10.33;;;8.67;;
10902;SDS011;5504;47.312;11.060;2022-07-01T04:38:39;10.60;;;7.93;;
10902;SDS011;5504;47.312;11.060;2022-07-01T04:41:04;10.20;;;8.30;;
10902;SDS011;5504;47.312;11.060;2022-07-01T04:43:49;7.87;;;7.07;;
10902;SDS011;5504;47.312;11.060;2022-07-01T04:46:14;9.13;;;8.20;;
10902;SDS011;5504;47.312;11.060;2022-07-01T04:48:40;8.43;;;7.53;;
10902;SDS011;5504;47.312;11.060;2022-07-01T04:51:06;11.50;;;8.23;;
10902;SDS011;5504;47.312;11.060;2022-07-01T04:53:32;10.00;;;8.10;;
10902;SDS011;5504;47.312;11.060;2022-07-01T04:55:57;9.40;;;7.70;;
10902;SDS011;5504;47.312;11.060;2022-07-01T04:58:23;9.50;;;7.80;;
10902;SDS011;5504;47.312;11.060;2022-07-01T05:00:49;11.40;;;7.50;;
10902;SDS011;5504;47.312;11.060;2022-07-01T05:03:16;9.67;;;7.90;;
10902;SDS011;5504;47.312;11.060;2022-07-01T05:05:41;8.70;;;7.30;;
10902;SDS011;5504;47.312;11.060;2022-07-01T05:08:07;8.67;;;7.20;;
10902;SDS011;5504;47.312;11.060;2022-07-01T05:10:33;8.00;;;7.20;;
10902;SDS011;5504;47.312;11.060;2022-07-01T05:12:59;7.97;;;7.20;;
10902;SDS011;5504;47.312;11.060;2022-07-01T05:15:24;8.47;;;7.23;;
10902;SDS011;5504;47.312;11.060;2022-07-01T05:17:50;8.17;;;7.30;;
10902;SDS011;5504;47.312;11.060;2022-07-01T05:20:34;7.90;;;7.10;;
10902;SDS011;5504;47.312;11.060;2022-07-01T05:23:18;8.20;;;7.00;;
10902;SDS011;5504;47.312;11.060;2022-07-01T05:25:44;7.53;;;6.70;;
10902;SDS011;5504;47.312;11.060;2022-07-01T05:28:09;7.80;;;7.00;;
10902;SDS011;5504;47.312;11.060;2022-07-01T05:30:35;7.13;;;6.50;;
10902;SDS011;5504;47.312;11.060;2022-07-01T05:33:01;8.30;;;7.03;;
10902;SDS011;5504;47.312;11.060;2022-07-01T05:35:27;8.32;;;6.85;;
10902;SDS011;5504;47.312;11.060;2022-07-01T05:37:52;8.45;;;6.93;;
10902;SDS011;5504;47.312;11.060;2022-07-01T05:40:18;7.85;;;6.57;;
10902;SDS011;5504;47.312;11.060;2022-07-01T05:42:44;7.15;;;6.45;;
10902;SDS011;5504;47.312;11.060;2022-07-01T05:45:09;8.48;;;6.07;;
10902;SDS011;5504;47.312;11.060;2022-07-01T05:47:35;6.50;;;5.90;;
10902;SDS011;5504;47.312;11.060;2022-07-01T05:50:01;6.68;;;5.95;;
10902;SDS011;5504;47.312;11.060;2022-07-01T05:52:26;6.82;;;5.80;;
10902;SDS011;5504;47.312;11.060;2022-07-01T05:54:52;6.93;;;6.10;;
10902;SDS011;5504;47.312;11.060;2022-07-01T05:57:18;8.13;;;6.43;;
10902;SDS011;5504;47.312;11.060;2022-07-01T05:59:44;7.07;;;6.38;;
10902;SDS011;5504;47.312;11.060;2022-07-01T06:02:09;7.18;;;6.47;;
10902;SDS011;5504;47.312;11.060;2022-07-01T06:04:35;7.85;;;7.07;;
10902;SDS011;5504;47.312;11.060;2022-07-01T06:07:01;6.82;;;6.22;;
10902;SDS011;5504;47.312;11.060;2022-07-01T06:09:26;7.78;;;6.32;;
10902;SDS011;5504;47.312;11.060;2022-07-01T06:11:52;7.10;;;6.40;;
10902;SDS011;5504;47.312;11.060;2022-07-01T06:14:18;10.07;;;6.22;;
10902;SDS011;5504;47.312;11.060;2022-07-01T06:16:43;7.03;;;6.35;;
10902;SDS011;5504;47.312;11.060;2022-07-01T06:19:09;7.90;;;6.43;;
10902;SDS011;5504;47.312;11.060;2022-07-01T06:21:35;8.32;;;6.82;;
10902;SDS011;5504;47.312;11.060;2022-07-01T06:24:00;7.70;;;6.90;;
10902;SDS011;5504;47.312;11.060;2022-07-01T06:26:26;8.80;;;6.75;;
10902;SDS011;5504;47.312;11.060;2022-07-01T06:28:52;9.45;;;7.20;;
10902;SDS011;5504;47.312;11.060;2022-07-01T06:31:17;8.48;;;7.13;;
10902;SDS011;5504;47.312;11.060;2022-07-01T06:33:43;8.18;;;7.20;;
10902;SDS011;5504;47.312;11.060;2022-07-01T06:36:10;8.05;;;6.95;;
10902;SDS011;5504;47.312;11.060;2022-07-01T06:38:35;8.23;;;6.35;;
10902;SDS011;5504;47.312;11.060;2022-07-01T06:41:01;8.13;;;7.03;;
10902;SDS011;5504;47.312;11.060;2022-07-01T06:43:45;6.97;;;6.28;;
10902;SDS011;5504;47.312;11.060;2022-07-01T06:46:11;10.40;;;6.45;;
10902;SDS011;5504;47.312;11.060;2022-07-01T06:48:36;8.00;;;6.57;;
10902;SDS011;5504;47.312;11.060;2022-07-01T06:51:02;6.63;;;5.95;;
10902;SDS011;5504;47.312;11.060;2022-07-01T06:53:28;7.18;;;5.53;;
10902;SDS011;5504;47.312;11.060;2022-07-01T06:55:54;5.65;;;5.07;;
10902;SDS011;5504;47.312;11.060;2022-07-01T06:58:19;6.45;;;4.97;;
10902;SDS011;5504;47.312;11.060;2022-07-01T07:00:45;5.38;;;4.63;;
10902;SDS011;5504;47.312;11.060;2022-07-01T07:03:11;5.78;;;3.88;;
10902;SDS011;5504;47.312;11.060;2022-07-01T07:05:37;5.30;;;4.50;;
10902;SDS011;5504;47.312;11.060;2022-07-01T07:08:03;4.85;;;4.35;;
10902;SDS011;5504;47.312;11.060;2022-07-01T07:10:28;4.30;;;4.00;;
10902;SDS011;5504;47.312;11.060;2022-07-01T07:12:55;5.05;;;4.60;;
10902;SDS011;5504;47.312;11.060;2022-07-01T07:15:20;5.57;;;4.50;;
10902;SDS011;5504;47.312;11.060;2022-07-01T07:17:46;4.75;;;4.20;;
10902;SDS011;5504;47.312;11.060;2022-07-01T07:20:11;4.40;;;4.00;;
10902;SDS011;5504;47.312;11.060;2022-07-01T07:22:37;4.28;;;3.88;;
10902;SDS011;5504;47.312;11.060;2022-07-01T07:25:03;4.82;;;3.90;;
10902;SDS011;5504;47.312;11.060;2022-07-01T07:27:29;5.38;;;3.90;;
10902;SDS011;5504;47.312;11.060;2022-07-01T07:29:55;4.95;;;4.20;;
10902;SDS011;5504;47.312;11.060;2022-07-01T07:32:20;6.75;;;4.22;;
10902;SDS011;5504;47.312;11.060;2022-07-01T07:34:46;5.03;;;4.47;;
10902;SDS011;5504;47.312;11.060;2022-07-01T07:37:12;4.90;;;4.05;;
10902;SDS011;5504;47.312;11.060;2022-07-01T07:39:37;4.70;;;4.30;;
10902;SDS011;5504;47.312;11.060;2022-07-01T07:42:03;5.45;;;4.18;;
10902;SDS011;5504;47.312;11.060;2022-07-01T07:44:30;4.30;;;3.85;;
10902;SDS011;5504;47.312;11.060;2022-07-01T07:46:56;4.13;;;3.75;;
10902;SDS011;5504;47.312;11.060;2022-07-01T07:49:22;5.93;;;3.92;;
10902;SDS011;5504;47.312;11.060;2022-07-01T07:51:49;4.38;;;3.70;;
10902;SDS011;5504;47.312;11.060;2022-07-01T07:54:15;5.35;;;4.15;;
10902;SDS011;5504;47.312;11.060;2022-07-01T07:56:41;7.47;;;4.47;;
10902;SDS011;5504;47.312;11.060;2022-07-01T07:59:06;4.03;;;3.55;;
10902;SDS011;5504;47.312;11.060;2022-07-01T08:01:32;4.15;;;3.78;;
10902;SDS011;5504;47.312;11.060;2022-07-01T08:03:58;5.43;;;4.13;;
10902;SDS011;5504;47.312;11.060;2022-07-01T08:06:24;5.63;;;4.07;;
10902;SDS011;5504;47.312;11.060;2022-07-01T08:08:49;5.00;;;4.50;;
10902;SDS011;5504;47.312;11.060;2022-07-01T08:11:16;5.10;;;4.40;;
10902;SDS011;5504;47.312;11.060;2022-07-01T08:13:42;5.30;;;4.80;;
10902;SDS011;5504;47.312;11.060;2022-07-01T08:16:08;6.22;;;4.70;;
10902;SDS011;5504;47.312;11.060;2022-07-01T08:18:35;6.20;;;4.25;;
10902;SDS011;5504;47.312;11.060;2022-07-01T08:21:01;5.18;;;4.43;;
10902;SDS011;5504;47.312;11.060;2022-07-01T08:23:26;6.50;;;4.50;;
10902;SDS011;5504;47.312;11.060;2022-07-01T08:25:52;6.00;;;4.50;;
10902;SDS011;5504;47.312;11.060;2022-07-01T08:28:18;6.20;;;5.13;;
10902;SDS011;5504;47.312;11.060;2022-07-01T08:30:44;5.30;;;4.63;;
10902;SDS011;5504;47.312;11.060;2022-07-01T08:33:10;5.55;;;4.10;;
10902;SDS011;5504;47.312;11.060;2022-07-01T08:35:36;6.70;;;4.88;;
10902;SDS011;5504;47.312;11.060;2022-07-01T08:38:02;5.30;;;4.38;;
10902;SDS011;5504;47.312;11.060;2022-07-01T08:40:29;7.20;;;4.55;;
10902;SDS011;5504;47.312;11.060;2022-07-01T08:42:58;5.55;;;4.70;;
10902;SDS011;5504;47.312;11.060;2022-07-01T08:45:26;5.43;;;4.90;;
10902;SDS011;5504;47.312;11.060;2022-07-01T08:47:52;6.78;;;4.90;;
10902;SDS011;5504;47.312;11.060;2022-07-01T08:50:25;5.20;;;4.72;;
10902;SDS011;5504;47.312;11.060;2022-07-01T08:52:52;5.88;;;5.13;;
10902;SDS011;5504;47.312;11.060;2022-07-01T08:55:21;5.85;;;4.95;;
10902;SDS011;5504;47.312;11.060;2022-07-01T08:57:47;4.80;;;4.40;;
10902;SDS011;5504;47.312;11.060;2022-07-01T09:00:13;5.68;;;4.60;;
10902;SDS011;5504;47.312;11.060;2022-07-01T09:05:22;5.32;;;4.65;;
10902;SDS011;5504;47.312;11.060;2022-07-01T09:07:49;5.18;;;4.68;;
10902;SDS011;5504;47.312;11.060;2022-07-01T09:10:27;5.32;;;4.75;;
10902;SDS011;5504;47.312;11.060;2022-07-01T09:12:56;6.57;;;4.32;;
10902;SDS011;5504;47.312;11.060;2022-07-01T09:15:29;5.20;;;4.80;;
10902;SDS011;5504;47.312;11.060;2022-07-01T09:18:02;6.15;;;4.57;;
10902;SDS011;5504;47.312;11.060;2022-07-01T09:20:34;4.80;;;4.40;;
10902;SDS011;5504;47.312;11.060;2022-07-01T09:25:27;6.22;;;4.40;;
10902;SDS011;5504;47.312;11.060;2022-07-01T09:28:12;5.22;;;4.72;;
10902;SDS011;5504;47.312;11.060;2022-07-01T09:30:50;5.22;;;3.90;;
10902;SDS011;5504;47.312;11.060;2022-07-01T09:33:20;4.90;;;3.75;;
10902;SDS011;5504;47.312;11.060;2022-07-01T09:35:48;4.35;;;3.50;;
10902;SDS011;5504;47.312;11.060;2022-07-01T09:38:15;2.50;;;2.30;;
10902;SDS011;5504;47.312;11.060;2022-07-01T09:40:58;2.80;;;1.58;;
10902;SDS011;5504;47.312;11.060;2022-07-01T09:43:35;1.67;;;1.58;;
10902;SDS011;5504;47.312;11.060;2022-07-01T09:46:05;1.70;;;1.60;;
10902;SDS011;5504;47.312;11.060;2022-07-01T09:51:02;4.25;;;3.00;;
10902;SDS011;5504;47.312;11.060;2022-07-01T09:53:29;3.05;;;2.75;;
10902;SDS011;5504;47.312;11.060;2022-07-01T09:55:55;2.33;;;2.08;;
10902;SDS011;5504;47.312;11.060;2022-07-01T09:58:20;1.70;;;1.60;;
10902;SDS011;5504;47.312;11.060;2022-07-01T10:00:46;2.42;;;1.10;;
10902;SDS011;5504;47.312;11.060;2022-07-01T10:03:13;1.75;;;1.10;;
10902;SDS011;5504;47.312;11.060;2022-07-01T10:13:17;2.38;;;1.67;;
10902;SDS011;5504;47.312;11.060;2022-07-01T10:15:46;0.93;;;0.93;;
10902;SDS011;5504;47.312;11.060;2022-07-01T10:18:25;1.52;;;0.80;;
10902;SDS011;5504;47.312;11.060;2022-07-01T10:20:53;1.10;;;0.90;;
10902;SDS011;5504;47.312;11.060;2022-07-01T10:23:24;1.80;;;1.00;;
10902;SDS011;5504;47.312;11.060;2022-07-01T10:25:53;0.80;;;0.80;;
10902;SDS011;5504;47.312;11.060;2022-07-01T10:28:31;1.38;;;0.85;;
10902;SDS011;5504;47.312;11.060;2022-07-01T10:31:12;0.70;;;0.70;;
10902;SDS011;5504;47.312;11.060;2022-07-01T10:33:55;1.33;;;0.70;;
10902;SDS011;5504;47.312;11.060;2022-07-01T10:41:26;0.50;;;0.50;;
10902;SDS011;5504;47.312;11.060;2022-07-01T10:43:56;0.97;;;0.60;;
10902;SDS011;5504;47.312;11.060;2022-07-01T10:49:16;0.63;;;0.47;;
10902;SDS011;5504;47.312;11.060;2022-07-01T10:51:53;0.40;;;0.40;;
10902;SDS011;5504;47.312;11.060;2022-07-01T11:04:52;0.40;;;0.40;;
10902;SDS011;5504;47.312;11.060;2022-07-01T11:07:26;0.50;;;0.40;;
10902;SDS011;5504;47.312;11.060;2022-07-01T11:09:53;0.50;;;0.50;;
10902;SDS011;5504;47.312;11.060;2022-07-01T11:12:21;0.40;;;0.40;;
10902;SDS011;5504;47.312;11.060;2022-07-01T11:14:51;0.90;;;0.37;;
10902;SDS011;5504;47.312;11.060;2022-07-01T11:17:17;0.30;;;0.30;;
10902;SDS011;5504;47.312;11.060;2022-07-01T11:19:50;0.50;;;0.33;;
10902;SDS011;5504;47.312;11.060;2022-07-01T11:22:23;0.40;;;0.40;;
10902;SDS011;5504;47.312;11.060;2022-07-01T11:24:54;0.40;;;0.40;;
10902;SDS011;5504;47.312;11.060;2022-07-01T11:27:21;0.30;;;0.30;;
10902;SDS011;5504;47.312;11.060;2022-07-01T11:29:54;0.57;;;0.33;;
10902;SDS011;5504;47.312;11.060;2022-07-01T11:32:34;0.20;;;0.20;;
10902;SDS011;5504;47.312;11.060;2022-07-01T11:35:02;0.93;;;0.30;;
10902;SDS011;5504;47.312;11.060;2022-07-01T11:37:50;0.30;;;0.30;;
10902;SDS011;5504;47.312;11.060;2022-07-01T11:40:35;0.63;;;0.50;;
10902;SDS011;5504;47.312;11.060;2022-07-01T11:43:01;0.30;;;0.30;;
10902;SDS011;5504;47.312;11.060;2022-07-01T11:45:27;1.23;;;0.33;;
10902;SDS011;5504;47.312;11.060;2022-07-01T11:47:53;0.77;;;0.33;;
10902;SDS011;5504;47.312;11.060;2022-07-01T11:50:19;0.60;;;0.60;;
10902;SDS011;5504;47.312;11.060;2022-07-01T11:52:45;1.03;;;0.40;;
10902;SDS011;5504;47.312;11.060;2022-07-01T11:55:11;0.40;;;0.30;;
10902;SDS011;5504;47.312;11.060;2022-07-01T11:57:37;0.20;;;0.20;;
10902;SDS011;5504;47.312;11.060;2022-07-01T12:00:09;0.20;;;0.20;;
10902;SDS011;5504;47.312;11.060;2022-07-01T12:02:37;0.63;;;0.30;;
10902;SDS011;5504;47.312;11.060;2022-07-01T12:05:03;1.77;;;0.60;;
10902;SDS011;5504;47.312;11.060;2022-07-01T12:07:30;1.87;;;0.90;;
10902;SDS011;5504;47.312;11.060;2022-07-01T12:09:57;2.80;;;1.00;;
10902;SDS011;5504;47.312;11.060;2022-07-01T12:12:23;3.47;;;0.90;;
10902;SDS011;5504;47.312;11.060;2022-07-01T12:14:57;2.53;;;0.93;;
10902;SDS011;5504;47.312;11.060;2022-07-01T12:17:24;1.83;;;0.70;;
10902;SDS011;5504;47.312;11.060;2022-07-01T12:19:52;1.43;;;0.70;;
10902;SDS011;5504;47.312;11.060;2022-07-01T12:22:19;1.73;;;0.63;;
10902;SDS011;5504;47.312;11.060;2022-07-01T12:24:48;1.90;;;0.60;;
10902;SDS011;5504;47.312;11.060;2022-07-01T12:27:15;1.07;;;0.60;;
10902;SDS011;5504;47.312;11.060;2022-07-01T12:32:19;0.87;;;0.70;;
10902;SDS011;5504;47.312;11.060;2022-07-01T12:34:59;1.87;;;0.60;;
10902;SDS011;5504;47.312;11.060;2022-07-01T12:37:27;1.73;;;0.70;;
10902;SDS011;5504;47.312;11.060;2022-07-01T12:42:33;1.83;;;0.70;;
10902;SDS011;5504;47.312;11.060;2022-07-01T12:45:04;1.10;;;0.60;;
10902;SDS011;5504;47.312;11.060;2022-07-01T12:47:36;1.83;;;0.60;;
10902;SDS011;5504;47.312;11.060;2022-07-01T12:50:13;0.80;;;0.67;;
10902;SDS011;5504;47.312;11.060;2022-07-01T12:53:05;0.97;;;0.73;;
10902;SDS011;5504;47.312;11.060;2022-07-01T12:55:43;1.27;;;0.70;;
10902;SDS011;5504;47.312;11.060;2022-07-01T12:58:10;1.20;;;0.50;;
10902;SDS011;5504;47.312;11.060;2022-07-01T13:00:38;1.77;;;0.70;;
10902;SDS011;5504;47.312;11.060;2022-07-01T13:03:05;0.93;;;0.60;;
10902;SDS011;5504;47.312;11.060;2022-07-01T13:05:32;2.20;;;0.70;;
10902;SDS011;5504;47.312;11.060;2022-07-01T13:07:59;0.70;;;0.60;;
10902;SDS011;5504;47.312;11.060;2022-07-01T13:10:25;1.60;;;0.70;;
10902;SDS011;5504;47.312;11.060;2022-07-01T13:12:51;0.80;;;0.70;;
10902;SDS011;5504;47.312;11.060;2022-07-01T13:15:17;2.27;;;0.80;;
10902;SDS011;5504;47.312;11.060;2022-07-01T13:17:44;3.90;;;0.80;;
10902;SDS011;5504;47.312;11.060;2022-07-01T13:20:11;1.50;;;0.67;;
10902;SDS011;5504;47.312;11.060;2022-07-01T13:22:37;0.77;;;0.73;;
10902;SDS011;5504;47.312;11.060;2022-07-01T13:25:04;2.53;;;0.80;;
10902;SDS011;5504;47.312;11.060;2022-07-01T13:27:30;1.20;;;0.60;;
10902;SDS011;5504;47.312;11.060;2022-07-01T13:29:56;1.60;;;0.73;;
10902;SDS011;5504;47.312;11.060;2022-07-01T13:32:23;2.23;;;0.70;;
10902;SDS011;5504;47.312;11.060;2022-07-01T13:34:48;2.90;;;0.63;;
10902;SDS011;5504;47.312;11.060;2022-07-01T13:37:14;1.63;;;0.73;;
10902;SDS011;5504;47.312;11.060;2022-07-01T13:39:40;2.20;;;0.67;;
10902;SDS011;5504;47.312;11.060;2022-07-01T13:42:06;1.47;;;0.50;;
10902;SDS011;5504;47.312;11.060;2022-07-01T13:44:32;1.33;;;0.77;;
10902;SDS011;5504;47.312;11.060;2022-07-01T13:46:58;2.50;;;0.70;;
10902;SDS011;5504;47.312;11.060;2022-07-01T13:49:25;0.63;;;0.60;;
10902;SDS011;5504;47.312;11.060;2022-07-01T13:51:50;1.63;;;1.00;;
10902;SDS011;5504;47.312;11.060;2022-07-01T13:54:16;2.77;;;0.93;;
10902;SDS011;5504;47.312;11.060;2022-07-01T13:56:42;0.80;;;0.80;;
10902;SDS011;5504;47.312;11.060;2022-07-01T13:59:10;1.80;;;1.00;;
10902;SDS011;5504;47.312;11.060;2022-07-01T14:01:36;1.43;;;1.03;;
10902;SDS011;5504;47.312;11.060;2022-07-01T14:04:02;1.00;;;0.90;;
10902;SDS011;5504;47.312;11.060;2022-07-01T14:06:28;2.30;;;1.20;;
10902;SDS011;5504;47.312;11.060;2022-07-01T14:08:53;1.73;;;1.10;;
10902;SDS011;5504;47.312;11.060;2022-07-01T14:11:19;4.07;;;1.23;;
10902;SDS011;5504;47.312;11.060;2022-07-01T14:13:46;2.10;;;0.97;;
10902;SDS011;5504;47.312;11.060;2022-07-01T14:16:11;1.70;;;0.90;;
10902;SDS011;5504;47.312;11.060;2022-07-01T14:18:37;1.60;;;0.90;;
10902;SDS011;5504;47.312;11.060;2022-07-01T14:21:03;2.33;;;1.00;;
10902;SDS011;5504;47.312;11.060;2022-07-01T14:23:30;1.27;;;0.80;;
10902;SDS011;5504;47.312;11.060;2022-07-01T14:25:57;2.03;;;1.10;;
10902;SDS011;5504;47.312;11.060;2022-07-01T14:28:22;1.83;;;0.80;;
10902;SDS011;5504;47.312;11.060;2022-07-01T14:30:48;2.50;;;0.90;;
10902;SDS011;5504;47.312;11.060;2022-07-01T14:33:14;1.40;;;0.70;;
10902;SDS011;5504;47.312;11.060;2022-07-01T14:35:41;1.13;;;0.73;;
10902;SDS011;5504;47.312;11.060;2022-07-01T14:38:07;0.70;;;0.70;;
10902;SDS011;5504;47.312;11.060;2022-07-01T14:40:33;1.07;;;0.77;;
10902;SDS011;5504;47.312;11.060;2022-07-01T14:43:01;1.40;;;1.10;;
10902;SDS011;5504;47.312;11.060;2022-07-01T14:45:27;2.47;;;1.50;;
10902;SDS011;5504;47.312;11.060;2022-07-01T14:47:52;1.60;;;1.10;;
10902;SDS011;5504;47.312;11.060;2022-07-01T14:50:18;2.40;;;1.10;;
10902;SDS011;5504;47.312;11.060;2022-07-01T14:52:44;1.37;;;1.23;;
10902;SDS011;5504;47.312;11.060;2022-07-01T14:55:10;1.37;;;1.00;;
10902;SDS011;5504;47.312;11.060;2022-07-01T14:57:36;0.93;;;0.80;;
10902;SDS011;5504;47.312;11.060;2022-07-01T15:00:03;4.37;;;1.20;;
10902;SDS011;5504;47.312;11.060;2022-07-01T15:02:29;1.10;;;0.53;;
10902;SDS011;5504;47.312;11.060;2022-07-01T15:04:55;0.80;;;0.60;;
10902;SDS011;5504;47.312;11.060;2022-07-01T15:07:21;0.63;;;0.63;;
10902;SDS011;5504;47.312;11.060;2022-07-01T15:09:49;1.47;;;0.70;;
10902;SDS011;5504;47.312;11.060;2022-07-01T15:12:15;0.70;;;0.70;;
10902;SDS011;5504;47.312;11.060;2022-07-01T15:14:41;0.83;;;0.70;;
10902;SDS011;5504;47.312;11.060;2022-07-01T15:17:07;1.13;;;0.77;;
10902;SDS011;5504;47.312;11.060;2022-07-01T15:19:33;1.00;;;0.60;;
10902;SDS011;5504;47.312;11.060;2022-07-01T15:21:58;0.70;;;0.70;;
10902;SDS011;5504;47.312;11.060;2022-07-01T15:24:24;1.87;;;0.90;;
10902;SDS011;5504;47.312;11.060;2022-07-01T15:26:50;2.60;;;1.20;;
10902;SDS011;5504;47.312;11.060;2022-07-01T15:29:17;1.80;;;1.40;;